createdAt,value
2023-04-03T00:00:41.108Z,96193.00
2023-04-03T00:01:41.187Z,96191.00
2023-04-03T00:02:41.330Z,96193.00
2023-04-03T00:03:41.192Z,96197.00
2023-04-03T00:04:41.425Z,96197.00
2023-04-03T00:05:41.167Z,96197.00
2023-04-03T00:06:41.205Z,96197.00
2023-04-03T00:07:40.229Z,96199.00
2023-04-03T00:08:41.277Z,96199.00
2023-04-03T00:09:41.296Z,96201.00
2023-04-03T00:10:40.233Z,96201.00
2023-04-03T00:11:41.216Z,96209.00
2023-04-03T00:12:41.244Z,96209.00
2023-04-03T00:13:41.305Z,96199.00
2023-04-03T00:14:40.235Z,96209.00
2023-04-03T00:15:41.263Z,96199.00
2023-04-03T00:16:41.302Z,96199.00
2023-04-03T00:17:41.234Z,96199.00
2023-04-03T00:18:41.255Z,96199.00
2023-04-03T00:19:40.288Z,96197.00
2023-04-03T00:20:41.425Z,96195.00
2023-04-03T00:21:41.425Z,96195.00
2023-04-03T00:22:41.344Z,96193.00
2023-04-03T00:23:41.270Z,96197.00
2023-04-03T00:24:41.336Z,96195.00
2023-04-03T00:25:41.339Z,96199.00
2023-04-03T00:26:41.316Z,96199.00
2023-04-03T00:27:41.391Z,96201.00
2023-04-03T00:28:41.320Z,96199.00
2023-04-03T00:29:41.377Z,96201.00
2023-04-03T00:30:41.291Z,96199.00
2023-04-03T00:31:41.329Z,96199.00
2023-04-03T00:32:41.358Z,96201.00
2023-04-03T00:33:41.366Z,96197.00
2023-04-03T00:34:40.272Z,96201.00
2023-04-03T00:35:41.349Z,96201.00
2023-04-03T00:36:41.425Z,96209.00
2023-04-03T00:37:41.307Z,96209.00
2023-04-03T00:38:40.317Z,96211.00
2023-04-03T00:39:41.308Z,96209.00
2023-04-03T00:40:41.367Z,96209.00
2023-04-03T00:41:41.338Z,96211.00
2023-04-03T00:42:41.347Z,96211.00
2023-04-03T00:43:41.357Z,96209.00
2023-04-03T00:44:41.372Z,96209.00
2023-04-03T00:45:41.416Z,96201.00
2023-04-03T00:46:40.513Z,96213.00
2023-04-03T00:47:41.412Z,96213.00
2023-04-03T00:48:40.417Z,96213.00
2023-04-03T00:49:41.413Z,96218.00
2023-04-03T00:50:41.420Z,96216.00
2023-04-03T00:51:41.461Z,96216.00
2023-04-03T00:52:41.445Z,96216.00
2023-04-03T00:53:41.445Z,96216.00
2023-04-03T00:54:41.451Z,96216.00
2023-04-03T00:55:40.481Z,96216.00
2023-04-03T00:56:41.471Z,96216.00
2023-04-03T00:57:41.509Z,96218.00
2023-04-03T00:58:41.501Z,96213.00
2023-04-03T00:59:41.536Z,96215.00
2023-04-03T01:00:41.597Z,96215.00
2023-04-03T01:01:41.641Z,96216.00
2023-04-03T01:02:40.663Z,96216.00
2023-04-03T01:03:40.605Z,96216.00
2023-04-03T01:04:40.837Z,96216.00
2023-04-03T01:05:41.717Z,96215.00
2023-04-03T01:06:41.696Z,96215.00
2023-04-03T01:07:41.684Z,96216.00
2023-04-03T01:08:41.656Z,96218.00
2023-04-03T01:09:41.671Z,96215.00
2023-04-03T01:10:40.733Z,96216.00
2023-04-03T01:11:41.704Z,96218.00
2023-04-03T01:12:46.584Z,96216.00
2023-04-03T01:13:41.730Z,96218.00
2023-04-03T01:14:41.694Z,96218.00
2023-04-03T01:15:41.785Z,96216.00
2023-04-03T01:16:41.773Z,96218.00
2023-04-03T01:17:40.767Z,96224.00
2023-04-03T01:18:41.731Z,96224.00
2023-04-03T01:19:41.718Z,96226.00
2023-04-03T01:20:41.757Z,96226.00
2023-04-03T01:21:41.760Z,96224.00
2023-04-03T01:22:41.718Z,96222.00
2023-04-03T01:23:41.713Z,96224.00
2023-04-03T01:24:41.741Z,96224.00
2023-04-03T01:25:41.667Z,96224.00
2023-04-03T01:26:41.630Z,96226.00
2023-04-03T01:27:41.614Z,96226.00
2023-04-03T01:28:41.703Z,96224.00
2023-04-03T01:29:41.607Z,96222.00
2023-04-03T01:30:41.605Z,96222.00
2023-04-03T01:31:41.664Z,96222.00
2023-04-03T01:32:41.605Z,96222.00
2023-04-03T01:33:41.578Z,96222.00
2023-04-03T01:34:40.554Z,96222.00
2023-04-03T01:35:40.604Z,96224.00
2023-04-03T01:36:40.535Z,96224.00
2023-04-03T01:37:41.535Z,96222.00
2023-04-03T01:38:41.566Z,96224.00
2023-04-03T01:39:41.549Z,96226.00
2023-04-03T01:40:41.547Z,96228.00
2023-04-03T01:41:41.490Z,96228.00
2023-04-03T01:42:40.512Z,96228.00
2023-04-03T01:43:41.490Z,96228.00
2023-04-03T01:44:41.476Z,96228.00
2023-04-03T01:45:41.506Z,96226.00
2023-04-03T01:46:41.453Z,96226.00
2023-04-03T01:47:41.502Z,96224.00
2023-04-03T01:48:41.437Z,96228.00
2023-04-03T01:49:41.470Z,96228.00
2023-04-03T01:50:41.500Z,96224.00
2023-04-03T01:51:41.455Z,96228.00
2023-04-03T01:52:41.451Z,96226.00
2023-04-03T01:53:41.443Z,96226.00
2023-04-03T01:54:41.428Z,96226.00
2023-04-03T01:55:41.417Z,96226.00
2023-04-03T01:56:41.523Z,96228.00
2023-04-03T01:57:41.583Z,96226.00
2023-04-03T01:58:40.434Z,96226.00
2023-04-03T01:59:40.430Z,96226.00
2023-04-03T02:00:41.406Z,96228.00
2023-04-03T02:01:41.450Z,96226.00
2023-04-03T02:02:40.458Z,96224.00
2023-04-03T02:03:41.430Z,96224.00
2023-04-03T02:04:41.382Z,96224.00
2023-04-03T02:05:41.311Z,96226.00
2023-04-03T02:06:41.327Z,96228.00
2023-04-03T02:07:41.333Z,96230.00
2023-04-03T02:08:41.323Z,96230.00
2023-04-03T02:09:41.314Z,96232.00
2023-04-03T02:10:41.338Z,96234.00
2023-04-03T02:11:40.387Z,96234.00
2023-04-03T02:12:40.392Z,96232.00
2023-04-03T02:13:41.399Z,96232.00
2023-04-03T02:14:41.446Z,96232.00
2023-04-03T02:15:40.478Z,96230.00
2023-04-03T02:16:41.524Z,96234.00
2023-04-03T02:17:40.573Z,96230.00
2023-04-03T02:18:41.581Z,96230.00
2023-04-03T02:19:40.598Z,96228.00
2023-04-03T02:20:41.680Z,96232.00
2023-04-03T02:21:41.710Z,96230.00
2023-04-03T02:22:41.704Z,96230.00
2023-04-03T02:23:41.741Z,96228.00
2023-04-03T02:24:41.777Z,96230.00
2023-04-03T02:25:41.811Z,96232.00
2023-04-03T02:26:41.824Z,96230.00
2023-04-03T02:27:40.920Z,96228.00
2023-04-03T02:28:41.837Z,96226.00
2023-04-03T02:29:40.918Z,96230.00
2023-04-03T02:30:41.904Z,96232.00
2023-04-03T02:31:41.929Z,96232.00
2023-04-03T02:32:42.033Z,96232.00
2023-04-03T02:33:41.015Z,96230.00
2023-04-03T02:34:42.031Z,96230.00
2023-04-03T02:35:42.080Z,96232.00
2023-04-03T02:36:42.100Z,96230.00
2023-04-03T02:37:41.000Z,96232.00
2023-04-03T02:38:42.034Z,96232.00
2023-04-03T02:39:41.051Z,96232.00
2023-04-03T02:40:41.076Z,96232.00
2023-04-03T02:41:42.131Z,96232.00
2023-04-03T02:42:41.139Z,96234.00
2023-04-03T02:43:42.195Z,96232.00
2023-04-03T02:44:42.210Z,96234.00
2023-04-03T02:45:41.234Z,96232.00
2023-04-03T02:46:42.305Z,96232.00
2023-04-03T02:47:41.404Z,96232.00
2023-04-03T02:48:42.315Z,96228.00
2023-04-03T02:49:41.392Z,96232.00
2023-04-03T02:50:42.454Z,96232.00
2023-04-03T02:51:41.530Z,96232.00
2023-04-03T02:52:42.437Z,96232.00
2023-04-03T02:53:42.486Z,96234.00
2023-04-03T02:54:41.454Z,96234.00
2023-04-03T02:55:42.499Z,96234.00
2023-04-03T02:56:42.458Z,96234.00
2023-04-03T02:57:42.489Z,96238.00
2023-04-03T02:58:42.548Z,96236.00
2023-04-03T02:59:42.563Z,96236.00
2023-04-03T03:00:42.555Z,96236.00
2023-04-03T03:01:41.704Z,96238.00
2023-04-03T03:02:42.677Z,96238.00
2023-04-03T03:03:41.640Z,96238.00
2023-04-03T03:04:42.808Z,96240.00
2023-04-03T03:05:42.904Z,96240.00
2023-04-03T03:06:43.617Z,96240.00
2023-04-03T03:07:42.714Z,96240.00
2023-04-03T03:08:42.742Z,96238.00
2023-04-03T03:09:42.708Z,96238.00
2023-04-03T03:10:42.742Z,96240.00
2023-04-03T03:11:42.695Z,96236.00
2023-04-03T03:12:41.687Z,96238.00
2023-04-03T03:13:43.173Z,96238.00
2023-04-03T03:14:41.675Z,96238.00
2023-04-03T03:15:41.705Z,96234.00
2023-04-03T03:16:42.659Z,96240.00
2023-04-03T03:17:41.781Z,96236.00
2023-04-03T03:18:42.659Z,96240.00
2023-04-03T03:19:42.710Z,96232.00
2023-04-03T03:20:42.653Z,96232.00
2023-04-03T03:21:43.526Z,96230.00
2023-04-03T03:22:42.637Z,96232.00
2023-04-03T03:23:42.612Z,96232.00
2023-04-03T03:24:42.633Z,96232.00
2023-04-03T03:25:42.628Z,96230.00
2023-04-03T03:26:42.590Z,96232.00
2023-04-03T03:27:41.581Z,96232.00
2023-04-03T03:28:42.590Z,96232.00
2023-04-03T03:29:41.559Z,96234.00
2023-04-03T03:30:41.558Z,96232.00
2023-04-03T03:31:42.581Z,96232.00
2023-04-03T03:32:42.574Z,96234.00
2023-04-03T03:33:41.530Z,96234.00
2023-04-03T03:34:42.588Z,96234.00
2023-04-03T03:35:42.569Z,96234.00
2023-04-03T03:36:41.562Z,96234.00
2023-04-03T03:37:42.571Z,96232.00
2023-04-03T03:38:41.641Z,96232.00
2023-04-03T03:39:41.613Z,96232.00
2023-04-03T03:40:41.724Z,96234.00
2023-04-03T03:41:41.637Z,96238.00
2023-04-03T03:42:41.673Z,96236.00
2023-04-03T03:43:42.735Z,96238.00
2023-04-03T03:44:42.741Z,96240.00
2023-04-03T03:45:42.779Z,96240.00
2023-04-03T03:46:42.847Z,96236.00
2023-04-03T03:47:42.905Z,96240.00
2023-04-03T03:48:42.895Z,96240.00
2023-04-03T03:49:42.938Z,96242.00
2023-04-03T03:50:43.037Z,96240.00
2023-04-03T03:51:43.021Z,96240.00
2023-04-03T03:52:43.069Z,96240.00
2023-04-03T03:53:42.163Z,96240.00
2023-04-03T03:54:42.213Z,96240.00
2023-04-03T03:55:42.212Z,96242.00
2023-04-03T03:56:43.207Z,96238.00
2023-04-03T03:57:43.232Z,96240.00
2023-04-03T03:58:42.254Z,96238.00
2023-04-03T03:59:42.296Z,96242.00
2023-04-03T04:00:43.329Z,96238.00
2023-04-03T04:01:43.389Z,96242.00
2023-04-03T04:02:43.477Z,96242.00
2023-04-03T04:03:42.585Z,96240.00
2023-04-03T04:04:43.524Z,96242.00
2023-04-03T04:05:43.498Z,96244.00
2023-04-03T04:06:43.545Z,96240.00
2023-04-03T04:07:43.578Z,96240.00
2023-04-03T04:08:43.608Z,96238.00
2023-04-03T04:09:43.654Z,96240.00
2023-04-03T04:10:42.708Z,96240.00
2023-04-03T04:11:43.737Z,96240.00
2023-04-03T04:12:43.906Z,96240.00
2023-04-03T04:13:43.819Z,96240.00
2023-04-03T04:14:43.844Z,96240.00
2023-04-03T04:15:43.929Z,96240.00
2023-04-03T04:16:43.980Z,96238.00
2023-04-03T04:17:44.055Z,96240.00
2023-04-03T04:18:44.047Z,96238.00
2023-04-03T04:19:43.126Z,96234.00
2023-04-03T04:20:44.097Z,96238.00
2023-04-03T04:21:44.275Z,96236.00
2023-04-03T04:22:44.218Z,96238.00
2023-04-03T04:23:44.262Z,96236.00
2023-04-03T04:24:44.248Z,96236.00
2023-04-03T04:25:44.289Z,96238.00
2023-04-03T04:26:44.308Z,96238.00
2023-04-03T04:27:44.445Z,96240.00
2023-04-03T04:28:44.466Z,96242.00
2023-04-03T04:29:43.392Z,96240.00
2023-04-03T04:30:44.513Z,96238.00
2023-04-03T04:31:44.501Z,96238.00
2023-04-03T04:32:44.581Z,96238.00
2023-04-03T04:33:43.562Z,96234.00
2023-04-03T04:34:44.662Z,96236.00
2023-04-03T04:35:44.728Z,96236.00
2023-04-03T04:36:44.750Z,96236.00
2023-04-03T04:37:44.689Z,96236.00
2023-04-03T04:38:43.755Z,96236.00
2023-04-03T04:39:44.787Z,96238.00
2023-04-03T04:40:44.843Z,96236.00
2023-04-03T04:41:44.924Z,96236.00
2023-04-03T04:42:43.921Z,96238.00
2023-04-03T04:43:44.073Z,96236.00
2023-04-03T04:44:45.004Z,96242.00
2023-04-03T04:45:44.057Z,96240.00
2023-04-03T04:46:45.271Z,96240.00
2023-04-03T04:47:45.252Z,96242.00
2023-04-03T04:48:44.227Z,96242.00
2023-04-03T04:49:45.307Z,96244.00
2023-04-03T04:50:45.300Z,96244.00
2023-04-03T04:51:52.083Z,96248.00
2023-04-03T04:52:45.314Z,96254.00
2023-04-03T04:53:44.377Z,96254.00
2023-04-03T04:54:45.296Z,96250.00
2023-04-03T04:55:44.360Z,96252.00
2023-04-03T04:56:45.353Z,96254.00
2023-04-03T04:57:45.314Z,96250.00
2023-04-03T04:58:44.300Z,96250.00
2023-04-03T04:59:45.422Z,96252.00
2023-04-03T05:00:45.263Z,96252.00
2023-04-03T05:01:45.282Z,96252.00
2023-04-03T05:02:45.229Z,96256.00
2023-04-03T05:03:44.231Z,96256.00
2023-04-03T05:04:45.230Z,96258.00
2023-04-03T05:05:45.219Z,96256.00
2023-04-03T05:06:45.199Z,96256.00
2023-04-03T05:07:45.212Z,96256.00
2023-04-03T05:08:45.167Z,96256.00
2023-04-03T05:09:44.252Z,96260.00
2023-04-03T05:10:45.180Z,96258.00
2023-04-03T05:11:44.286Z,96258.00
2023-04-03T05:12:45.246Z,96258.00
2023-04-03T05:13:45.154Z,96258.00
2023-04-03T05:14:45.150Z,96258.00
2023-04-03T05:15:44.173Z,96258.00
2023-04-03T05:16:44.137Z,96260.00
2023-04-03T05:17:45.155Z,96262.00
2023-04-03T05:18:45.120Z,96262.00
2023-04-03T05:19:44.099Z,96262.00
2023-04-03T05:20:45.119Z,96262.00
2023-04-03T05:21:45.088Z,96265.00
2023-04-03T05:22:45.077Z,96267.00
2023-04-03T05:23:45.154Z,96267.00
2023-04-03T05:24:44.182Z,96267.00
2023-04-03T05:25:45.266Z,96265.00
2023-04-03T05:26:45.333Z,96265.00
2023-04-03T05:27:45.344Z,96271.00
2023-04-03T05:28:44.355Z,96267.00
2023-04-03T05:29:45.518Z,96271.00
2023-04-03T05:30:45.440Z,96271.00
2023-04-03T05:31:45.559Z,96271.00
2023-04-03T05:32:45.549Z,96273.00
2023-04-03T05:33:44.553Z,96273.00
2023-04-03T05:34:45.596Z,96275.00
2023-04-03T05:35:45.664Z,96275.00
2023-04-03T05:36:45.679Z,96275.00
2023-04-03T05:37:45.768Z,96275.00
2023-04-03T05:38:44.761Z,96275.00
2023-04-03T05:39:44.875Z,96273.00
2023-04-03T05:40:45.893Z,96277.00
2023-04-03T05:41:45.906Z,96279.00
2023-04-03T05:42:45.968Z,96279.00
2023-04-03T05:43:46.001Z,96279.00
2023-04-03T05:44:45.042Z,96277.00
2023-04-03T05:45:47.005Z,96277.00
2023-04-03T05:46:46.242Z,96279.00
2023-04-03T05:47:46.248Z,96281.00
2023-04-03T05:48:45.238Z,96277.00
2023-04-03T05:49:46.287Z,96281.00
2023-04-03T05:50:45.345Z,96277.00
2023-04-03T05:51:46.397Z,96275.00
2023-04-03T05:52:46.427Z,96277.00
2023-04-03T05:53:46.474Z,96281.00
2023-04-03T05:54:46.531Z,96279.00
2023-04-03T05:55:46.637Z,96277.00
2023-04-03T05:56:45.641Z,96279.00
2023-04-03T05:57:46.678Z,96281.00
2023-04-03T05:58:45.737Z,96281.00
2023-04-03T05:59:46.773Z,96281.00
2023-04-03T06:00:46.858Z,96281.00
2023-04-03T06:01:46.896Z,96279.00
2023-04-03T06:02:47.106Z,96281.00
2023-04-03T06:03:47.190Z,96281.00
2023-04-03T06:04:46.135Z,96281.00
2023-04-03T06:05:47.119Z,96281.00
2023-04-03T06:06:47.158Z,96281.00
2023-04-03T06:07:47.221Z,96285.00
2023-04-03T06:08:46.258Z,96285.00
2023-04-03T06:09:47.319Z,96285.00
2023-04-03T06:10:47.402Z,96285.00
2023-04-03T06:11:47.416Z,96285.00
2023-04-03T06:12:47.377Z,96287.00
2023-04-03T06:13:46.436Z,96285.00
2023-04-03T06:14:47.568Z,96285.00
2023-04-03T06:15:47.586Z,96287.00
2023-04-03T06:16:47.629Z,96287.00
2023-04-03T06:17:46.715Z,96287.00
2023-04-03T06:18:47.683Z,96289.00
2023-04-03T06:19:46.734Z,96289.00
2023-04-03T06:20:47.721Z,96289.00
2023-04-03T06:21:48.025Z,96291.00
2023-04-03T06:22:47.822Z,96293.00
2023-04-03T06:23:47.911Z,96293.00
2023-04-03T06:24:47.973Z,96297.00
2023-04-03T06:25:47.980Z,96295.00
2023-04-03T06:26:48.216Z,96297.00
2023-04-03T06:27:47.077Z,96295.00
2023-04-03T06:28:48.144Z,96297.00
2023-04-03T06:29:48.193Z,96299.00
2023-04-03T06:30:47.319Z,96299.00
2023-04-03T06:31:47.306Z,96299.00
2023-04-03T06:32:49.102Z,96302.00
2023-04-03T06:33:48.493Z,96301.00
2023-04-03T06:34:48.506Z,96301.00
2023-04-03T06:35:48.570Z,96302.00
2023-04-03T06:36:48.598Z,96301.00
2023-04-03T06:37:48.531Z,96301.00
2023-04-03T06:38:48.568Z,96301.00
2023-04-03T06:39:48.620Z,96299.00
2023-04-03T06:40:47.706Z,96302.00
2023-04-03T06:41:48.746Z,96297.00
2023-04-03T06:42:47.784Z,96299.00
2023-04-03T06:43:47.871Z,96299.00
2023-04-03T06:44:48.914Z,96299.00
2023-04-03T06:45:47.977Z,96297.00
2023-04-03T06:46:49.150Z,96297.00
2023-04-03T06:47:48.224Z,96297.00
2023-04-03T06:48:49.190Z,96297.00
2023-04-03T06:49:49.292Z,96297.00
2023-04-03T06:50:49.463Z,96297.00
2023-04-03T06:51:49.384Z,96297.00
2023-04-03T06:52:49.455Z,96301.00
2023-04-03T06:53:49.392Z,96301.00
2023-04-03T06:54:49.436Z,96299.00
2023-04-03T06:55:49.558Z,96302.00
2023-04-03T06:56:49.681Z,96301.00
2023-04-03T06:57:49.700Z,96301.00
2023-04-03T06:58:48.670Z,96297.00
2023-04-03T06:59:49.793Z,96301.00
2023-04-03T07:00:49.815Z,96299.00
2023-04-03T07:01:48.916Z,96299.00
2023-04-03T07:02:50.019Z,96299.00
2023-04-03T07:03:49.910Z,96301.00
2023-04-03T07:04:50.126Z,96302.00
2023-04-03T07:05:49.043Z,96304.00
2023-04-03T07:06:50.106Z,96306.00
2023-04-03T07:07:49.150Z,96306.00
2023-04-03T07:08:50.252Z,96304.00
2023-04-03T07:09:50.269Z,96306.00
2023-04-03T07:10:50.304Z,96308.00
2023-04-03T07:11:50.399Z,96310.00
2023-04-03T07:12:50.474Z,96308.00
2023-04-03T07:13:49.414Z,96310.00
2023-04-03T07:14:50.644Z,96312.00
2023-04-03T07:15:50.565Z,96312.00
2023-04-03T07:16:49.563Z,96310.00
2023-04-03T07:17:50.592Z,96310.00
2023-04-03T07:18:50.619Z,96314.00
2023-04-03T07:19:49.671Z,96316.00
2023-04-03T07:20:50.946Z,96316.00
2023-04-03T07:21:49.769Z,96316.00
2023-04-03T07:22:50.857Z,96318.00
2023-04-03T07:24:49.972Z,96318.00
2023-04-03T07:25:50.997Z,96320.00
2023-04-03T07:26:51.045Z,96318.00
2023-04-03T07:27:50.115Z,96320.00
2023-04-03T07:28:51.126Z,96320.00
2023-04-03T07:29:51.195Z,96322.00
2023-04-03T07:30:51.242Z,96322.00
2023-04-03T07:31:51.446Z,96322.00
2023-04-03T07:32:50.419Z,96322.00
2023-04-03T07:33:51.548Z,96324.00
2023-04-03T07:34:51.503Z,96326.00
2023-04-03T07:35:51.557Z,96324.00
2023-04-03T07:36:51.572Z,96324.00
2023-04-03T07:37:51.625Z,96320.00
2023-04-03T07:38:51.664Z,96324.00
2023-04-03T07:39:51.785Z,96324.00
2023-04-03T07:40:51.827Z,96326.00
2023-04-03T07:41:51.747Z,96328.00
2023-04-03T07:42:51.783Z,96330.00
2023-04-03T07:43:51.858Z,96330.00
2023-04-03T07:44:51.888Z,96330.00
2023-04-03T07:45:52.070Z,96332.00
2023-04-03T07:46:51.979Z,96332.00
2023-04-03T07:47:52.071Z,96330.00
2023-04-03T07:48:52.096Z,96332.00
2023-04-03T07:49:52.110Z,96334.00
2023-04-03T07:50:51.342Z,96334.00
2023-04-03T07:51:52.287Z,96336.00
2023-04-03T07:52:52.323Z,96332.00
2023-04-03T07:53:51.336Z,96336.00
2023-04-03T07:54:52.395Z,96334.00
2023-04-03T07:55:52.452Z,96332.00
2023-04-03T07:56:52.434Z,96334.00
2023-04-03T07:57:52.481Z,96334.00
2023-04-03T07:58:52.571Z,96336.00
2023-04-03T07:59:52.610Z,96336.00
2023-04-03T08:00:52.660Z,96340.00
2023-04-03T08:01:52.763Z,96340.00
2023-04-03T08:02:53.052Z,96336.00
2023-04-03T08:03:52.986Z,96342.00
2023-04-03T08:04:53.018Z,96336.00
2023-04-03T08:05:52.932Z,96338.00
2023-04-03T08:06:53.019Z,96338.00
2023-04-03T08:07:53.008Z,96340.00
2023-04-03T08:08:53.001Z,96340.00
2023-04-03T08:09:52.031Z,96340.00
2023-04-03T08:10:53.091Z,96342.00
2023-04-03T08:11:53.126Z,96340.00
2023-04-03T08:12:52.173Z,96338.00
2023-04-03T08:13:53.744Z,96336.00
2023-04-03T08:14:53.267Z,96336.00
2023-04-03T08:15:52.331Z,96340.00
2023-04-03T08:16:53.364Z,96338.00
2023-04-03T08:17:53.448Z,96336.00
2023-04-03T08:18:53.409Z,96334.00
2023-04-03T08:19:53.474Z,96336.00
2023-04-03T08:20:53.429Z,96336.00
2023-04-03T08:21:53.479Z,96334.00
2023-04-03T08:22:53.619Z,96338.00
2023-04-03T08:23:52.640Z,96336.00
2023-04-03T08:24:59.336Z,96338.00
2023-04-03T08:25:53.628Z,96340.00
2023-04-03T08:26:53.184Z,96338.00
2023-04-03T08:27:52.583Z,96338.00
2023-04-03T08:28:53.598Z,96340.00
2023-04-03T08:29:53.644Z,96340.00
2023-04-03T08:30:52.575Z,96340.00
2023-04-03T08:31:53.524Z,96336.00
2023-04-03T08:32:53.627Z,96340.00
2023-04-03T08:33:53.511Z,96338.00
2023-04-03T08:34:53.495Z,96340.00
2023-04-03T08:35:53.608Z,96340.00
2023-04-03T08:36:53.509Z,96338.00
2023-04-03T08:37:53.519Z,96342.00
2023-04-03T08:38:53.581Z,96344.00
2023-04-03T08:39:53.466Z,96342.00
2023-04-03T08:40:53.449Z,96340.00
2023-04-03T08:41:53.437Z,96342.00
2023-04-03T08:42:53.426Z,96342.00
2023-04-03T08:43:53.451Z,96340.00
2023-04-03T08:44:53.453Z,96340.00
2023-04-03T08:45:53.448Z,96338.00
2023-04-03T08:46:53.406Z,96336.00
2023-04-03T08:47:54.608Z,96338.00
2023-04-03T08:48:53.394Z,96340.00
2023-04-03T08:49:53.604Z,96336.00
2023-04-03T08:50:53.417Z,96340.00
2023-04-03T08:51:53.482Z,96338.00
2023-04-03T08:52:53.368Z,96340.00
2023-04-03T08:53:53.365Z,96338.00
2023-04-03T08:54:53.387Z,96338.00
2023-04-03T08:55:53.369Z,96340.00
2023-04-03T08:56:53.387Z,96342.00
2023-04-03T08:57:53.349Z,96340.00
2023-04-03T08:58:53.300Z,96342.00
2023-04-03T08:59:53.357Z,96340.00
2023-04-03T09:00:53.322Z,96342.00
2023-04-03T09:01:53.370Z,96338.00
2023-04-03T09:02:53.366Z,96340.00
2023-04-03T09:03:53.288Z,96338.00
2023-04-03T09:04:53.313Z,96332.00
2023-04-03T09:05:53.262Z,96334.00
2023-04-03T09:06:53.251Z,96334.00
2023-04-03T09:07:52.352Z,96332.00
2023-04-03T09:08:53.233Z,96332.00
2023-04-03T09:09:53.473Z,96332.00
2023-04-03T09:10:54.265Z,96334.00
2023-04-03T09:11:53.237Z,96336.00
2023-04-03T09:12:53.250Z,96334.00
2023-04-03T09:13:53.244Z,96336.00
2023-04-03T09:14:53.206Z,96334.00
2023-04-03T09:15:53.261Z,96334.00
2023-04-03T09:16:53.220Z,96334.00
2023-04-03T09:17:53.438Z,96334.00
2023-04-03T09:18:53.265Z,96334.00
2023-04-03T09:19:53.255Z,96336.00
2023-04-03T09:20:53.296Z,96338.00
2023-04-03T09:21:53.340Z,96334.00
2023-04-03T09:22:53.378Z,96334.00
2023-04-03T09:23:53.510Z,96336.00
2023-04-03T09:24:53.438Z,96336.00
2023-04-03T09:25:53.477Z,96338.00
2023-04-03T09:26:53.491Z,96336.00
2023-04-03T09:27:53.498Z,96334.00
2023-04-03T09:28:52.616Z,96332.00
2023-04-03T09:29:53.569Z,96334.00
2023-04-03T09:30:53.598Z,96330.00
2023-04-03T09:31:53.680Z,96328.00
2023-04-03T09:32:52.710Z,96326.00
2023-04-03T09:33:53.739Z,96328.00
2023-04-03T09:34:53.712Z,96330.00
2023-04-03T09:35:53.785Z,96328.00
2023-04-03T09:36:53.801Z,96328.00
2023-04-03T09:37:53.824Z,96328.00
2023-04-03T09:38:53.910Z,96336.00
2023-04-03T09:39:54.118Z,96328.00
2023-04-03T09:40:53.929Z,96328.00
2023-04-03T09:41:53.974Z,96328.00
2023-04-03T09:43:00.949Z,96326.00
2023-04-03T09:43:54.082Z,96330.00
2023-04-03T09:44:54.042Z,96328.00
2023-04-03T09:45:54.063Z,96328.00
2023-04-03T09:46:54.165Z,96328.00
2023-04-03T09:47:54.032Z,96328.00
2023-04-03T09:49:05.052Z,96326.00
2023-04-03T09:49:53.948Z,96334.00
2023-04-03T09:50:54.026Z,96330.00
2023-04-03T09:51:52.978Z,96330.00
2023-04-03T09:52:53.966Z,96330.00
2023-04-03T09:53:53.956Z,96332.00
2023-04-03T09:54:53.969Z,96330.00
2023-04-03T09:55:54.025Z,96334.00
2023-04-03T09:56:53.960Z,96334.00
2023-04-03T09:57:53.923Z,96330.00
2023-04-03T09:58:53.890Z,96334.00
2023-04-03T09:59:53.886Z,96334.00
2023-04-03T10:00:53.889Z,96336.00
2023-04-03T10:01:53.868Z,96332.00
2023-04-03T10:02:53.885Z,96330.00
2023-04-03T10:03:52.855Z,96332.00
2023-04-03T10:05:08.343Z,96334.00
2023-04-03T10:05:53.848Z,96330.00
2023-04-03T10:06:53.875Z,96326.00
2023-04-03T10:08:01.653Z,96328.00
2023-04-03T10:08:53.849Z,96326.00
2023-04-03T10:09:53.922Z,96330.00
2023-04-03T10:10:53.831Z,96326.00
2023-04-03T10:11:53.939Z,96328.00
2023-04-03T10:12:53.796Z,96328.00
2023-04-03T10:13:53.772Z,96324.00
2023-04-03T10:14:53.844Z,96332.00
2023-04-03T10:15:53.801Z,96324.00
2023-04-03T10:16:53.806Z,96324.00
2023-04-03T10:17:53.786Z,96326.00
2023-04-03T10:18:53.801Z,96326.00
2023-04-03T10:19:53.729Z,96326.00
2023-04-03T10:20:53.730Z,96322.00
2023-04-03T10:21:53.737Z,96326.00
2023-04-03T10:22:53.728Z,96322.00
2023-04-03T10:23:52.804Z,96324.00
2023-04-03T10:24:53.704Z,96322.00
2023-04-03T10:25:52.731Z,96322.00
2023-04-03T10:26:53.721Z,96326.00
2023-04-03T10:27:53.823Z,96324.00
2023-04-03T10:28:53.696Z,96322.00
2023-04-03T10:29:53.661Z,96318.00
2023-04-03T10:30:53.685Z,96320.00
2023-04-03T10:31:53.634Z,96320.00
2023-04-03T10:32:52.675Z,96318.00
2023-04-03T10:33:53.662Z,96318.00
2023-04-03T10:35:04.589Z,96318.00
2023-04-03T10:35:53.696Z,96318.00
2023-04-03T10:36:53.623Z,96318.00
2023-04-03T10:37:53.590Z,96318.00
2023-04-03T10:38:52.687Z,96316.00
2023-04-03T10:39:53.572Z,96318.00
2023-04-03T10:40:53.597Z,96318.00
2023-04-03T10:41:57.990Z,96320.00
2023-04-03T10:42:53.620Z,96322.00
2023-04-03T10:43:52.613Z,96324.00
2023-04-03T10:44:53.587Z,96322.00
2023-04-03T10:45:52.599Z,96322.00
2023-04-03T10:46:52.534Z,96326.00
2023-04-03T10:47:53.562Z,96322.00
2023-04-03T10:48:53.520Z,96322.00
2023-04-03T10:49:59.327Z,96324.00
2023-04-03T10:50:53.498Z,96322.00
2023-04-03T10:51:52.490Z,96322.00
2023-04-03T10:52:53.511Z,96318.00
2023-04-03T10:53:52.541Z,96322.00
2023-04-03T10:54:53.527Z,96318.00
2023-04-03T10:55:53.488Z,96318.00
2023-04-03T10:57:04.598Z,96314.00
2023-04-03T10:57:53.524Z,96322.00
2023-04-03T10:58:53.472Z,96320.00
2023-04-03T10:59:52.577Z,96322.00
2023-04-03T11:00:52.430Z,96320.00
2023-04-03T11:01:53.527Z,96320.00
2023-04-03T11:02:52.503Z,96318.00
2023-04-03T11:03:52.485Z,96314.00
2023-04-03T11:04:53.479Z,96314.00
2023-04-03T11:05:53.382Z,96316.00
2023-04-03T11:06:53.397Z,96314.00
2023-04-03T11:07:52.386Z,96312.00
2023-04-03T11:08:53.361Z,96312.00
2023-04-03T11:09:52.366Z,96310.00
2023-04-03T11:10:53.355Z,96314.00
2023-04-03T11:11:53.325Z,96310.00
2023-04-03T11:12:52.346Z,96312.00
2023-04-03T11:13:52.317Z,96312.00
2023-04-03T11:14:53.316Z,96310.00
2023-04-03T11:15:53.451Z,96314.00
2023-04-03T11:16:54.337Z,96310.00
2023-04-03T11:17:53.356Z,96312.00
2023-04-03T11:18:53.284Z,96308.00
2023-04-03T11:19:53.266Z,96308.00
2023-04-03T11:20:53.276Z,96310.00
2023-04-03T11:21:53.281Z,96310.00
2023-04-03T11:22:53.263Z,96302.00
2023-04-03T11:23:53.298Z,96306.00
2023-04-03T11:24:53.312Z,96306.00
2023-04-03T11:25:53.354Z,96310.00
2023-04-03T11:26:53.433Z,96310.00
2023-04-03T11:27:53.432Z,96308.00
2023-04-03T11:28:53.476Z,96308.00
2023-04-03T11:29:53.473Z,96310.00
2023-04-03T11:30:54.966Z,96310.00
2023-04-03T11:31:52.637Z,96310.00
2023-04-03T11:32:52.599Z,96310.00
2023-04-03T11:33:53.514Z,96308.00
2023-04-03T11:34:52.558Z,96308.00
2023-04-03T11:35:53.511Z,96308.00
2023-04-03T11:36:53.676Z,96308.00
2023-04-03T11:37:52.504Z,96306.00
2023-04-03T11:38:54.054Z,96304.00
2023-04-03T11:39:53.447Z,96304.00
2023-04-03T11:40:53.430Z,96304.00
2023-04-03T11:42:03.263Z,96304.00
2023-04-03T11:42:53.470Z,96304.00
2023-04-03T11:43:53.436Z,96301.00
2023-04-03T11:44:53.409Z,96306.00
2023-04-03T11:45:53.397Z,96301.00